createdAt,value
2018-05-27T00:00:01.187Z,50.48
2018-05-27T00:02:33.726Z,51.03
2018-05-27T00:05:06.269Z,50.71
2018-05-27T00:07:39.109Z,50.70
2018-05-27T00:10:11.640Z,50.71
2018-05-27T00:12:44.172Z,51.05
2018-05-27T00:15:16.704Z,51.62
2018-05-27T00:17:49.215Z,51.67
2018-05-27T00:20:21.737Z,51.68
2018-05-27T00:22:54.250Z,51.83
2018-05-27T00:25:26.808Z,51.66
2018-05-27T00:27:59.316Z,51.42
2018-05-27T00:30:31.847Z,51.79
2018-05-27T00:33:04.357Z,51.89
2018-05-27T00:35:36.907Z,51.80
2018-05-27T00:38:10.306Z,51.81
2018-05-27T00:40:42.828Z,52.01
2018-05-27T00:43:15.332Z,52.90
2018-05-27T00:45:47.849Z,52.91
2018-05-27T00:48:20.372Z,53.00
2018-05-27T00:50:52.948Z,53.08
2018-05-27T00:56:25.606Z,54.09
2018-05-27T00:58:58.189Z,53.98
2018-05-27T01:01:30.784Z,54.17
2018-05-27T01:04:03.363Z,54.33
2018-05-27T01:06:35.986Z,53.79
2018-05-27T01:09:08.557Z,54.09
2018-05-27T01:11:41.146Z,54.15
2018-05-27T01:14:13.754Z,54.46
2018-05-27T01:16:46.353Z,54.28
2018-05-27T01:19:18.940Z,54.06
2018-05-27T01:21:51.541Z,54.28
2018-05-27T01:24:24.097Z,54.94
2018-05-27T01:26:56.725Z,54.27
2018-05-27T01:29:29.292Z,54.32
2018-05-27T01:32:01.979Z,54.71
2018-05-27T01:34:34.588Z,55.00
2018-05-27T01:37:07.195Z,55.11
2018-05-27T01:39:39.749Z,54.81
2018-05-27T01:42:12.378Z,54.79
2018-05-27T01:44:44.938Z,55.19
2018-05-27T01:47:17.525Z,55.49
2018-05-27T01:49:50.078Z,55.98
2018-05-27T01:52:22.731Z,55.72
2018-05-27T01:54:55.329Z,56.35
2018-05-27T01:57:27.964Z,56.54
2018-05-27T02:00:00.551Z,56.42
2018-05-27T02:02:33.125Z,56.26
2018-05-27T02:05:05.681Z,56.36
2018-05-27T02:07:38.289Z,55.98
2018-05-27T02:10:10.860Z,56.20
2018-05-27T02:12:43.441Z,56.72
2018-05-27T02:15:15.994Z,57.06
2018-05-27T02:17:48.569Z,57.35
2018-05-27T02:20:21.155Z,56.74
2018-05-27T02:22:53.744Z,55.81
2018-05-27T02:25:26.325Z,56.23
2018-05-27T02:27:58.919Z,55.86
2018-05-27T02:30:31.487Z,56.12
2018-05-27T02:33:04.132Z,55.99
2018-05-27T02:35:36.700Z,56.25
2018-05-27T02:38:09.319Z,56.53
2018-05-27T02:40:41.927Z,56.66
2018-05-27T02:43:14.536Z,56.16
2018-05-27T02:45:47.145Z,55.94
2018-05-27T02:48:19.707Z,56.38
2018-05-27T02:50:52.334Z,56.22
2018-05-27T02:53:24.917Z,56.10
2018-05-27T02:55:57.531Z,55.96
2018-05-27T02:58:30.119Z,55.78
2018-05-27T03:03:41.559Z,56.17
2018-05-27T03:06:14.173Z,56.16
2018-05-27T03:08:46.749Z,56.33
2018-05-27T03:11:19.344Z,56.59
2018-05-27T03:13:51.930Z,56.71
2018-05-27T03:16:24.528Z,56.64
2018-05-27T03:18:57.100Z,56.55
2018-05-27T03:21:29.679Z,56.97
2018-05-27T03:24:02.258Z,57.75
2018-05-27T03:26:34.847Z,57.83
2018-05-27T03:29:07.418Z,57.42
2018-05-27T03:31:40.018Z,57.25
2018-05-27T03:34:12.607Z,57.34
2018-05-27T03:36:45.215Z,57.32
2018-05-27T03:39:17.818Z,57.17
2018-05-27T03:41:50.448Z,57.10
2018-05-27T03:44:23.025Z,57.30
2018-05-27T03:46:55.632Z,57.17
2018-05-27T03:49:28.202Z,56.81
2018-05-27T03:52:00.805Z,56.75
2018-05-27T03:54:33.368Z,56.53
2018-05-27T03:57:06.005Z,57.26
2018-05-27T03:59:38.592Z,57.47
2018-05-27T04:02:11.183Z,57.40
2018-05-27T04:04:56.536Z,57.13
2018-05-27T04:07:40.840Z,57.32
2018-05-27T04:10:13.399Z,57.62
2018-05-27T04:12:46.007Z,58.62
2018-05-27T04:15:18.599Z,58.73
2018-05-27T04:17:51.205Z,58.81
2018-05-27T04:20:23.807Z,58.39
2018-05-27T04:22:56.402Z,58.18
2018-05-27T04:25:29.013Z,58.01
2018-05-27T04:28:01.667Z,57.91
2018-05-27T04:30:34.249Z,57.65
2018-05-27T04:33:06.864Z,57.54
2018-05-27T04:35:39.460Z,57.68
2018-05-27T04:38:12.096Z,57.42
2018-05-27T04:40:44.689Z,57.20
2018-05-27T04:43:17.327Z,57.38
2018-05-27T04:45:49.929Z,56.88
2018-05-27T04:48:23.552Z,56.99
2018-05-27T04:50:56.160Z,56.76
2018-05-27T04:53:28.764Z,56.71
2018-05-27T04:56:01.390Z,56.42
2018-05-27T04:58:33.986Z,56.33
2018-05-27T05:01:06.613Z,56.18
2018-05-27T05:03:40.186Z,56.28
2018-05-27T05:06:12.778Z,56.52
2018-05-27T05:08:45.375Z,56.29
2018-05-27T05:11:17.964Z,56.05
2018-05-27T05:13:50.579Z,55.67
2018-05-27T05:16:23.211Z,56.03
2018-05-27T05:18:55.844Z,55.56
2018-05-27T05:21:28.456Z,55.52
2018-05-27T05:24:01.046Z,55.47
2018-05-27T05:26:33.630Z,55.25
2018-05-27T05:29:06.247Z,55.16
2018-05-27T05:31:38.857Z,54.88
2018-05-27T05:34:11.490Z,54.86
2018-05-27T05:36:44.081Z,54.87
2018-05-27T05:39:16.700Z,54.54
2018-05-27T05:41:49.303Z,54.40
2018-05-27T05:44:21.910Z,54.50
2018-05-27T05:46:54.468Z,54.68
2018-05-27T05:49:27.090Z,54.42
2018-05-27T05:51:59.699Z,54.09
2018-05-27T05:54:32.301Z,53.75
2018-05-27T05:57:04.893Z,53.63
2018-05-27T05:59:37.507Z,53.45
2018-05-27T06:02:10.086Z,52.57
2018-05-27T06:04:42.713Z,52.05
2018-05-27T06:07:15.285Z,51.96
2018-05-27T06:09:47.884Z,51.41
2018-05-27T06:12:20.463Z,51.18
2018-05-27T06:14:53.124Z,51.14
2018-05-27T06:17:25.731Z,50.76
2018-05-27T06:19:58.346Z,50.93
2018-05-27T06:22:30.924Z,50.14
2018-05-27T06:25:03.532Z,49.94
2018-05-27T06:27:36.106Z,50.19
2018-05-27T06:30:08.707Z,49.93
2018-05-27T06:32:41.266Z,49.42
2018-05-27T06:35:13.863Z,49.24
2018-05-27T06:37:46.433Z,49.26
2018-05-27T06:40:19.043Z,48.75
2018-05-27T06:42:51.625Z,48.59
2018-05-27T06:45:24.233Z,48.51
2018-05-27T06:47:56.829Z,48.34
2018-05-27T06:50:29.441Z,47.83
2018-05-27T06:53:02.067Z,47.95
2018-05-27T06:55:34.679Z,47.80
2018-05-27T06:58:07.259Z,47.31
2018-05-27T07:00:39.899Z,47.28
2018-05-27T07:03:12.490Z,47.27
2018-05-27T07:05:45.098Z,47.38
2018-05-27T07:08:17.706Z,47.52
2018-05-27T07:10:50.308Z,46.90
2018-05-27T07:13:22.887Z,47.59
2018-05-27T07:15:55.504Z,47.46
2018-05-27T07:18:28.081Z,47.09
2018-05-27T07:21:00.689Z,46.62
2018-05-27T07:23:33.275Z,46.58
2018-05-27T07:26:05.894Z,46.44
2018-05-27T07:28:38.504Z,46.22
2018-05-27T07:31:11.175Z,46.51
2018-05-27T07:33:43.775Z,46.28
2018-05-27T07:36:16.368Z,45.87
2018-05-27T07:38:48.971Z,45.91
2018-05-27T07:41:21.545Z,45.68
2018-05-27T07:43:54.124Z,45.43
2018-05-27T07:46:26.795Z,44.82
2018-05-27T07:48:59.380Z,44.38
2018-05-27T07:51:31.984Z,44.29
2018-05-27T07:54:04.575Z,44.20
2018-05-27T07:56:37.192Z,44.41
2018-05-27T07:59:09.778Z,43.78
2018-05-27T08:01:42.409Z,44.18
2018-05-27T08:04:14.968Z,43.46
2018-05-27T08:06:47.600Z,43.50
2018-05-27T08:09:20.177Z,43.06
2018-05-27T08:11:52.793Z,43.39
2018-05-27T08:14:25.380Z,43.23
2018-05-27T08:16:57.978Z,42.84
2018-05-27T08:19:30.550Z,41.14
2018-05-27T08:22:03.161Z,41.63
2018-05-27T08:24:35.754Z,41.91
2018-05-27T08:27:08.384Z,41.59
2018-05-27T08:29:41.522Z,41.43
2018-05-27T08:32:14.096Z,41.27
2018-05-27T08:34:46.673Z,40.35
2018-05-27T08:37:19.529Z,40.62
2018-05-27T08:39:52.097Z,40.37
2018-05-27T08:42:24.683Z,39.27
2018-05-27T08:44:57.293Z,39.58
2018-05-27T08:47:29.889Z,38.39
2018-05-27T08:50:02.455Z,36.46
2018-05-27T08:52:35.029Z,35.24
2018-05-27T08:55:07.602Z,35.85
2018-05-27T08:57:40.190Z,35.71
2018-05-27T09:00:12.740Z,35.51
2018-05-27T09:02:45.326Z,36.44
2018-05-27T09:05:17.900Z,35.11
2018-05-27T09:07:50.491Z,33.87
2018-05-27T09:10:23.064Z,32.11
2018-05-27T09:12:55.647Z,31.24
2018-05-27T09:15:28.241Z,31.95
2018-05-27T09:18:00.855Z,31.75
2018-05-27T09:20:33.447Z,33.26
2018-05-27T09:23:06.794Z,33.85
2018-05-27T09:25:39.371Z,34.52
2018-05-27T09:28:11.941Z,34.86
2018-05-27T09:30:44.557Z,35.36
2018-05-27T09:33:17.124Z,34.62
2018-05-27T09:38:28.606Z,35.27
2018-05-27T09:41:01.216Z,35.50
2018-05-27T09:43:33.789Z,33.66
2018-05-27T09:46:07.271Z,34.32
2018-05-27T09:48:39.819Z,34.67
2018-05-27T09:51:12.494Z,33.77
2018-05-27T09:53:45.024Z,33.64
2018-05-27T09:56:17.637Z,34.24
2018-05-27T09:58:50.235Z,34.41
2018-05-27T10:01:22.828Z,34.73
2018-05-27T10:03:55.413Z,34.88
2018-05-27T10:06:28.013Z,34.67
2018-05-27T10:09:00.625Z,34.11
2018-05-27T10:11:33.227Z,34.27
2018-05-27T10:14:05.781Z,34.33
2018-05-27T10:16:38.425Z,33.79
2018-05-27T10:19:11.015Z,33.87
2018-05-27T10:21:43.602Z,33.26
2018-05-27T10:24:16.183Z,32.30
2018-05-27T10:26:48.787Z,32.94
2018-05-27T10:29:21.380Z,32.85
2018-05-27T10:31:53.973Z,33.17
2018-05-27T10:37:05.435Z,31.75
2018-05-27T10:39:38.050Z,32.21
2018-05-27T10:42:10.663Z,31.31
2018-05-27T10:44:43.285Z,31.55
2018-05-27T10:47:15.901Z,31.52
2018-05-27T10:49:48.470Z,32.15
2018-05-27T10:52:21.075Z,31.62
2018-05-27T10:54:53.639Z,30.80
2018-05-27T10:57:26.234Z,29.66
2018-05-27T11:02:37.789Z,30.08
2018-05-27T11:05:10.379Z,29.95
2018-05-27T11:07:42.979Z,30.02
2018-05-27T11:10:15.537Z,30.34
2018-05-27T11:12:48.114Z,29.67
2018-05-27T11:15:20.687Z,28.84
2018-05-27T11:17:53.303Z,29.48
2018-05-27T11:20:25.876Z,28.60
2018-05-27T11:22:58.487Z,29.04
2018-05-27T11:25:31.067Z,29.24
2018-05-27T11:28:05.373Z,28.79
2018-05-27T11:30:37.960Z,27.73
2018-05-27T11:33:10.574Z,28.14
2018-05-27T11:35:43.142Z,26.54
2018-05-27T11:38:15.768Z,27.87
2018-05-27T11:40:48.345Z,27.43
2018-05-27T11:43:20.933Z,27.98
2018-05-27T11:45:53.536Z,28.97
2018-05-27T11:48:26.136Z,27.04
2018-05-27T11:50:58.700Z,26.85
2018-05-27T11:53:31.332Z,27.75
2018-05-27T11:56:03.937Z,27.99
2018-05-27T11:58:36.792Z,27.94
2018-05-27T12:01:09.386Z,27.29
2018-05-27T12:03:42.022Z,28.55
2018-05-27T12:06:14.623Z,26.68
2018-05-27T12:08:47.250Z,26.53
2018-05-27T12:11:19.854Z,27.33
2018-05-27T12:13:52.475Z,26.55
2018-05-27T12:16:25.065Z,26.95
2018-05-27T12:18:57.647Z,26.30
2018-05-27T12:21:30.220Z,27.05
2018-05-27T12:24:02.856Z,26.69
2018-05-27T12:26:35.551Z,26.49
2018-05-27T12:29:08.171Z,26.24
2018-05-27T12:31:40.751Z,24.87
2018-05-27T12:34:13.353Z,25.36
2018-05-27T12:36:45.963Z,25.15
2018-05-27T12:39:18.623Z,25.56
2018-05-27T12:41:51.232Z,26.67
2018-05-27T12:44:23.813Z,25.52
2018-05-27T12:46:56.393Z,25.04
2018-05-27T12:49:28.999Z,25.61
2018-05-27T12:52:01.575Z,25.28
2018-05-27T12:54:34.173Z,25.30
2018-05-27T12:57:06.748Z,26.28
2018-05-27T12:59:45.215Z,25.66
2018-05-27T13:02:21.980Z,25.57
2018-05-27T13:04:54.628Z,25.59
2018-05-27T13:07:28.287Z,25.08
2018-05-27T13:10:00.873Z,25.11
2018-05-27T13:12:33.472Z,24.41
2018-05-27T13:15:06.059Z,25.38
2018-05-27T13:17:38.676Z,24.94
2018-05-27T13:20:11.260Z,25.41
2018-05-27T13:22:43.868Z,25.71
2018-05-27T13:25:16.449Z,25.73
2018-05-27T13:27:49.065Z,25.72
2018-05-27T13:30:21.653Z,25.46
2018-05-27T13:32:54.278Z,25.99
2018-05-27T13:35:26.906Z,26.11
2018-05-27T13:37:59.546Z,26.44
2018-05-27T13:40:32.132Z,26.07
2018-05-27T13:43:04.780Z,26.34
2018-05-27T13:45:37.380Z,25.88
2018-05-27T13:48:10.012Z,26.85
2018-05-27T13:50:42.592Z,26.21
2018-05-27T13:53:15.178Z,25.08
2018-05-27T13:55:47.779Z,25.05
2018-05-27T13:58:20.409Z,24.79
2018-05-27T14:00:58.667Z,24.81
2018-05-27T14:03:31.256Z,25.61
2018-05-27T14:06:03.873Z,25.21
2018-05-27T14:08:36.485Z,25.68
2018-05-27T14:11:09.058Z,25.73
2018-05-27T14:13:41.678Z,26.19
2018-05-27T14:16:14.245Z,25.58
2018-05-27T14:18:46.854Z,26.08
2018-05-27T14:21:19.474Z,25.50
2018-05-27T14:23:52.084Z,24.70
2018-05-27T14:26:24.648Z,26.67
2018-05-27T14:28:57.264Z,24.98
2018-05-27T14:31:29.858Z,25.56
2018-05-27T14:34:02.476Z,25.31
2018-05-27T14:36:35.042Z,25.10
2018-05-27T14:39:07.684Z,25.71
2018-05-27T14:41:42.049Z,25.47
2018-05-27T14:44:20.705Z,25.91
2018-05-27T14:46:53.268Z,25.64
2018-05-27T14:49:26.847Z,25.76
2018-05-27T14:52:01.361Z,27.18
2018-05-27T14:54:36.942Z,25.66
2018-05-27T14:57:14.671Z,25.98
2018-05-27T14:59:47.271Z,25.29
2018-05-27T15:02:19.923Z,25.66
2018-05-27T15:04:53.681Z,25.90
2018-05-27T15:10:05.608Z,26.91
2018-05-27T15:12:38.204Z,25.85
2018-05-27T15:15:10.804Z,25.82
2018-05-27T15:17:43.394Z,26.36
2018-05-27T15:20:16.034Z,25.92
2018-05-27T15:22:48.677Z,26.43
2018-05-27T15:25:21.360Z,26.94
2018-05-27T15:27:53.903Z,27.29
2018-05-27T15:30:26.516Z,26.33
2018-05-27T15:32:59.140Z,26.36
2018-05-27T15:35:31.754Z,26.33
2018-05-27T15:38:05.984Z,26.39
2018-05-27T15:40:38.635Z,26.53
2018-05-27T15:43:11.208Z,25.96
2018-05-27T15:45:43.814Z,26.43
2018-05-27T15:48:16.422Z,26.61
2018-05-27T15:50:49.065Z,26.58
2018-05-27T15:53:21.653Z,26.07
2018-05-27T15:55:56.356Z,26.25
2018-05-27T15:58:28.949Z,26.29
2018-05-27T16:01:03.086Z,25.66
2018-05-27T16:03:37.727Z,26.37
2018-05-27T16:06:10.340Z,25.59
2018-05-27T16:08:42.944Z,26.45
2018-05-27T16:11:15.560Z,25.86
2018-05-27T16:13:48.157Z,26.44
2018-05-27T16:16:20.767Z,27.40
2018-05-27T16:18:53.382Z,27.37
2018-05-27T16:21:25.998Z,26.91
2018-05-27T16:23:58.575Z,26.31
2018-05-27T16:26:31.208Z,26.68
2018-05-27T16:29:03.803Z,27.41
2018-05-27T16:31:36.425Z,26.42
2018-05-27T16:34:09.052Z,26.28
2018-05-27T16:36:41.664Z,26.70
2018-05-27T16:39:14.281Z,26.37
2018-05-27T16:41:46.905Z,26.50
2018-05-27T16:46:58.397Z,24.57
2018-05-27T16:49:31.011Z,24.85
2018-05-27T16:52:03.596Z,25.00
2018-05-27T16:54:36.230Z,25.17
2018-05-27T16:57:08.833Z,24.90
2018-05-27T16:59:41.466Z,25.40
2018-05-27T17:02:14.034Z,27.54
2018-05-27T17:04:46.662Z,25.95
2018-05-27T17:07:19.261Z,25.71
2018-05-27T17:09:51.938Z,25.58
2018-05-27T17:12:24.556Z,25.56
2018-05-27T17:14:57.209Z,25.61
2018-05-27T17:17:29.786Z,25.80
2018-05-27T17:20:02.496Z,26.24
2018-05-27T17:22:36.585Z,26.39
2018-05-27T17:25:09.222Z,26.58
2018-05-27T17:27:42.792Z,26.36
2018-05-27T17:30:15.542Z,26.12
2018-05-27T17:32:48.179Z,27.69
2018-05-27T17:35:20.801Z,27.69
2018-05-27T17:37:53.452Z,28.47
2018-05-27T17:40:26.081Z,28.20
2018-05-27T17:42:58.671Z,27.23
2018-05-27T17:45:31.295Z,28.22
2018-05-27T17:48:11.791Z,27.69
2018-05-27T17:50:44.458Z,27.54
2018-05-27T17:53:17.042Z,27.46
2018-05-27T17:55:49.664Z,27.79
2018-05-27T17:58:22.243Z,28.62
2018-05-27T18:00:54.865Z,29.07
2018-05-27T18:03:27.450Z,29.10
2018-05-27T18:06:00.094Z,29.42
2018-05-27T18:08:32.684Z,29.91
2018-05-27T18:11:05.344Z,31.27
2018-05-27T18:13:37.956Z,32.51
2018-05-27T18:16:10.610Z,34.00
2018-05-27T18:18:43.234Z,34.13
2018-05-27T18:21:15.860Z,34.73
2018-05-27T18:23:48.485Z,34.75
2018-05-27T18:26:21.314Z,35.37
2018-05-27T18:28:54.102Z,35.44
2018-05-27T18:31:26.726Z,35.61
2018-05-27T18:33:59.325Z,35.70
2018-05-27T18:36:31.936Z,35.76
2018-05-27T18:39:04.549Z,35.86
2018-05-27T18:41:37.183Z,36.38
2018-05-27T18:44:09.793Z,36.30
2018-05-27T18:46:42.395Z,36.85
2018-05-27T18:49:15.218Z,37.29
2018-05-27T18:51:47.855Z,37.54
2018-05-27T18:54:20.495Z,37.92
2018-05-27T18:56:53.123Z,38.11
2018-05-27T18:59:25.744Z,38.49
2018-05-27T19:01:58.357Z,38.97
2018-05-27T19:04:30.941Z,39.41
2018-05-27T19:07:03.564Z,39.81
2018-05-27T19:09:36.151Z,40.18
2018-05-27T19:12:08.760Z,40.73
2018-05-27T19:14:41.358Z,41.08
2018-05-27T19:17:13.983Z,41.89
2018-05-27T19:19:46.547Z,42.26
2018-05-27T19:22:19.160Z,42.36
2018-05-27T19:24:51.752Z,42.62
2018-05-27T19:27:24.684Z,42.56
2018-05-27T19:29:57.379Z,42.62
2018-05-27T19:32:30.021Z,42.99
2018-05-27T19:35:02.612Z,43.52
2018-05-27T19:37:35.228Z,43.98
2018-05-27T19:40:07.845Z,43.63
2018-05-27T19:42:40.465Z,43.62
2018-05-27T19:45:13.060Z,44.04
2018-05-27T19:47:45.661Z,43.87
2018-05-27T19:50:18.235Z,44.00
2018-05-27T19:52:50.859Z,43.71
2018-05-27T19:55:23.451Z,44.18
2018-05-27T19:57:56.097Z,44.15
2018-05-27T20:00:28.702Z,44.18
2018-05-27T20:03:01.288Z,44.58
2018-05-27T20:05:33.857Z,44.30
2018-05-27T20:08:06.454Z,44.50
2018-05-27T20:10:39.049Z,44.74
2018-05-27T20:13:11.661Z,44.98
2018-05-27T20:15:44.240Z,45.51
2018-05-27T20:18:16.956Z,45.48
2018-05-27T20:20:49.537Z,45.60
2018-05-27T20:23:22.120Z,45.56
2018-05-27T20:25:54.704Z,45.69
2018-05-27T20:28:27.322Z,46.41
2018-05-27T20:30:59.915Z,46.01
2018-05-27T20:33:32.531Z,46.41
2018-05-27T20:36:05.123Z,46.07
2018-05-27T20:38:37.771Z,45.22
2018-05-27T20:41:10.412Z,44.91
2018-05-27T20:43:43.027Z,44.23
2018-05-27T20:46:15.654Z,42.90
2018-05-27T20:48:48.241Z,42.75
2018-05-27T20:51:20.822Z,42.54
2018-05-27T20:53:53.435Z,41.32
2018-05-27T20:56:26.042Z,41.52
2018-05-27T20:58:58.687Z,40.94
2018-05-27T21:01:31.302Z,40.41
2018-05-27T21:04:03.934Z,41.61
2018-05-27T21:06:36.541Z,40.96
2018-05-27T21:09:09.169Z,41.12
2018-05-27T21:11:41.812Z,41.48
2018-05-27T21:14:14.431Z,40.82
2018-05-27T21:16:47.036Z,41.25
2018-05-27T21:19:19.615Z,41.56
2018-05-27T21:21:52.278Z,41.05
2018-05-27T21:24:24.891Z,40.95
2018-05-27T21:26:57.560Z,41.46
2018-05-27T21:29:30.168Z,41.46
2018-05-27T21:32:02.793Z,41.67
2018-05-27T21:34:35.398Z,42.24
2018-05-27T21:39:46.918Z,41.71
2018-05-27T21:42:19.563Z,41.68
2018-05-27T21:44:52.169Z,41.59
2018-05-27T21:47:24.832Z,42.00
2018-05-27T21:49:57.434Z,42.34
2018-05-27T21:52:30.067Z,42.17
2018-05-27T21:55:02.682Z,42.75
2018-05-27T21:57:35.311Z,42.61
2018-05-27T22:00:07.920Z,42.73
2018-05-27T22:02:40.512Z,42.81
2018-05-27T22:05:13.090Z,42.77
2018-05-27T22:07:45.724Z,43.15
2018-05-27T22:10:18.315Z,43.20
2018-05-27T22:12:50.947Z,43.26
2018-05-27T22:15:23.538Z,43.26
2018-05-27T22:17:56.150Z,43.69
2018-05-27T22:20:28.724Z,43.18
2018-05-27T22:23:01.350Z,43.38
2018-05-27T22:25:33.965Z,43.32
2018-05-27T22:28:06.594Z,43.49
2018-05-27T22:30:39.186Z,43.23
2018-05-27T22:33:11.798Z,43.58
2018-05-27T22:35:44.390Z,43.89
2018-05-27T22:38:16.987Z,43.76
2018-05-27T22:40:49.582Z,44.08
2018-05-27T22:43:22.182Z,43.86
2018-05-27T22:45:54.760Z,44.11
2018-05-27T22:48:27.369Z,44.15
2018-05-27T22:50:59.951Z,44.20
2018-05-27T22:53:32.541Z,44.46
2018-05-27T22:56:05.123Z,44.14
2018-05-27T22:58:37.787Z,43.72
2018-05-27T23:01:10.451Z,44.61
2018-05-27T23:03:43.090Z,44.07
2018-05-27T23:06:15.707Z,43.93
2018-05-27T23:08:48.321Z,44.36
2018-05-27T23:11:20.938Z,44.90
2018-05-27T23:13:53.559Z,45.04
2018-05-27T23:16:26.172Z,45.26
2018-05-27T23:18:58.782Z,44.99
2018-05-27T23:21:31.374Z,44.60
2018-05-27T23:24:03.959Z,44.98
2018-05-27T23:26:36.548Z,45.59
2018-05-27T23:29:09.180Z,45.29
2018-05-27T23:31:41.772Z,45.78
2018-05-27T23:34:14.384Z,45.97
2018-05-27T23:36:46.969Z,46.03
2018-05-27T23:39:19.604Z,45.77
2018-05-27T23:41:52.182Z,46.01
2018-05-27T23:44:24.815Z,45.78
2018-05-27T23:46:57.441Z,46.21
2018-05-27T23:49:30.045Z,46.15
2018-05-27T23:52:02.635Z,46.21
2018-05-27T23:54:36.356Z,46.38
2018-05-27T23:57:08.953Z,46.75
2018-05-27T23:59:41.561Z,46.65
